フォークランド諸島 の空港の天気 - METARとTAF

マウント・プレザント空軍基地 ( EGYP / MPN ) - フォークランド諸島 フォークランド諸島
飛行場実況気象(Metar)
観測時間09/24 20:50 FKST (09/24 23:50 UTC)
風向・風速北西 15m/s 瞬間風速21m/s
視程10km以上
天気現象
なし
気温11℃
湿度67%
気圧998hPa
METAREGYP 242350Z 31029G40KT CAVOK 11/05 Q0998
過去の天気等 Google飛行場航空写真 Wunderground天気予報

過去48時間のMETAR

飛行場予報(TAF)
発表時間: 9/24 21:02 FKST (9/25 00:02 UTC)
予報対象時間: 24日21時 FKST ~ 25日15時 FKST
風向・風速北西 15m/s 瞬間風速 21m/s
視程10km以上
少しの雲 雲底高度 760m
24日21時 FKST ~ 25日11時 FKST に 確率 40% で一時的に
風向・風速不定 4m/s
全天の4割程度の雲 雲底高度 300m
24日21時 FKST ~ 25日3時 FKST に 確率 30% で一時的に
風向・風速北北西 23m/s 瞬間風速 31m/s
25日3時 FKST ~ 25日6時 FKST に徐々に
風向・風速北北西 10m/s 瞬間風速 15m/s
25日3時 FKST ~ 25日6時 FKST に 確率 30% で一時的に
風向・風速北北西 21m/s 瞬間風速 26m/s
25日6時 FKST ~ 25日8時 FKST に 確率 30% で一時的に
風向・風速北西 15m/s 瞬間風速 21m/s
25日8時 FKST ~ 25日11時 FKST に徐々に
風向・風速西北西 8m/s
25日11時 FKST ~ 25日14時 FKST に徐々に
風向・風速西 4m/s
TAF EGYP 250002Z 2500/2518 31030G40KT 9999 FEW025 530003
PROB40 TEMPO 2500/2514 VRB07KT SCT010 560003
PROB30 TEMPO 2500/2506 33045G60KT
BECMG 2506/2509 33020G30KT
PROB30 TEMPO 2506/2509 33040G50KT
PROB30 TEMPO 2509/2511 32030G40KT
BECMG 2511/2514 30015KT 50////
BECMG 2514/2517 27007KT